Map

Track Data

SID SEASON NUMBER BASIN SUBBASIN NAME ISO_TIME NATURE LAT LON WMO_WIND WMO_PRES WMO_AGENCY TRACK_TYPE DIST2LAND LANDFALL IFLAG USA_AGENCY USA_ATCF_ID USA_LAT USA_LON USA_RECORD USA_STATUS USA_WIND USA_PRES USA_SSHS USA_R34_NE USA_R34_SE USA_R34_SW USA_R34_NW USA_R50_NE USA_R50_SE USA_R50_SW USA_R50_NW USA_R64_NE USA_R64_SE USA_R64_SW USA_R64_NW USA_POCI USA_ROCI USA_RMW USA_EYE TOKYO_LAT TOKYO_LON TOKYO_GRADE TOKYO_WIND TOKYO_PRES TOKYO_R50_DIR TOKYO_R50_LONG TOKYO_R50_SHORT TOKYO_R30_DIR TOKYO_R30_LONG TOKYO_R30_SHORT TOKYO_LAND CMA_LAT CMA_LON CMA_CAT CMA_WIND CMA_PRES HKO_LAT HKO_LON HKO_CAT HKO_WIND HKO_PRES NEWDELHI_LAT NEWDELHI_LON NEWDELHI_GRADE NEWDELHI_WIND NEWDELHI_PRES NEWDELHI_CI NEWDELHI_DP NEWDELHI_POCI REUNION_LAT REUNION_LON REUNION_TYPE REUNION_WIND REUNION_PRES REUNION_TNUM REUNION_CI REUNION_RMW REUNION_R34_NE REUNION_R34_SE REUNION_R34_SW REUNION_R34_NW REUNION_R50_NE REUNION_R50_SE REUNION_R50_SW REUNION_R50_NW REUNION_R64_NE REUNION_R64_SE REUNION_R64_SW REUNION_R64_NW BOM_LAT BOM_LON BOM_TYPE BOM_WIND BOM_PRES BOM_TNUM BOM_CI BOM_RMW BOM_R34_NE BOM_R34_SE BOM_R34_SW BOM_R34_NW BOM_R50_NE BOM_R50_SE BOM_R50_SW BOM_R50_NW BOM_R64_NE BOM_R64_SE BOM_R64_SW BOM_R64_NW BOM_ROCI BOM_POCI BOM_EYE BOM_POS_METHOD BOM_PRES_METHOD NADI_LAT NADI_LON NADI_CAT NADI_WIND NADI_PRES WELLINGTON_LAT WELLINGTON_LON WELLINGTON_WIND WELLINGTON_PRES DS824_LAT DS824_LON DS824_STAGE DS824_WIND DS824_PRES TD9636_LAT TD9636_LON TD9636_STAGE TD9636_WIND TD9636_PRES TD9635_LAT TD9635_LON TD9635_WIND TD9635_PRES TD9635_ROCI NEUMANN_LAT NEUMANN_LON NEUMANN_CLASS NEUMANN_WIND NEUMANN_PRES MLC_LAT MLC_LON MLC_CLASS MLC_WIND MLC_PRES USA_GUST BOM_GUST BOM_GUST_PER REUNION_GUST REUNION_GUST_PER USA_SEAHGT USA_SEARAD_NE USA_SEARAD_SE USA_SEARAD_SW USA_SEARAD_NW STORM_SPEED STORM_DIR
1876247N14325 1876 15 NA NA NOT_NAMED 1876-09-02 12:00:00 TS 13.5000 -35.5000 main 1897 1895 _____________O -1 13.5000 -35.5000 TD 30 11 297
1876247N14325 1876 15 NA NA NOT_NAMED 1876-09-02 15:00:00 TS 13.7502 -35.9998 main 1917 1912 _____________P -1 13.7502 -35.9998 TD 30 11 297
1876247N14325 1876 15 NA NA NOT_NAMED 1876-09-02 18:00:00 TS 14.0000 -36.5000 main 1928 1920 _____________O -1 14.0000 -36.5000 TD 30 11 297
1876247N14325 1876 15 NA NA NOT_NAMED 1876-09-02 21:00:00 TS 14.2499 -37.0001 main 1920 1895 _____________P -1 14.2499 -37.0001 TD 30 11 297
1876247N14325 1876 15 NA NA NOT_NAMED 1876-09-03 00:00:00 TS 14.5000 -37.5000 main 1895 1865 _____________O -1 14.5000 -37.5000 TD 30 11 297
1876247N14325 1876 15 NA NA NOT_NAMED 1876-09-03 03:00:00 TS 14.7499 -38.0001 main 1865 1844 _____________P -1 14.7499 -38.0001 TD 30 11 297
1876247N14325 1876 15 NA NA NOT_NAMED 1876-09-03 06:00:00 TS 15.0000 -38.5000 main 1844 1817 _____________O -1 15.0000 -38.5000 TD 30 11 297
1876247N14325 1876 15 NA NA NOT_NAMED 1876-09-03 09:00:00 TS 15.2423 -38.9852 main 1817 1800 _____________P -1 15.2423 -38.9852 TD 32 11 297
1876247N14325 1876 15 NA NA NOT_NAMED 1876-09-03 12:00:00 TS 15.5000 -39.5000 main 1800 1777 _____________O -1 15.5000 -39.5000 TS 35 12 298
1876247N14325 1876 15 NA NA NOT_NAMED 1876-09-03 15:00:00 TS 15.8000 -40.0925 main 1777 1756 _____________P -1 15.8000 -40.0925 TS 35 13 297
1876247N14325 1876 15 NA NA NOT_NAMED 1876-09-03 18:00:00 TS 16.1000 -40.7000 main 1757 1738 _____________O -1 16.1000 -40.7000 TS 35 13 296
1876247N14325 1876 15 NA NA NOT_NAMED 1876-09-03 21:00:00 TS 16.3498 -41.2578 main 1732 1722 _____________P -1 16.3498 -41.2578 TS 35 12 295
1876247N14325 1876 15 NA NA NOT_NAMED 1876-09-04 00:00:00 TS 16.6000 -41.8000 main 1724 1710 _____________O -1 16.6000 -41.8000 TS 35 12 298
1876247N14325 1876 15 NA NA NOT_NAMED 1876-09-04 03:00:00 TS 16.8999 -42.3500 main 1713 1707 _____________P -1 16.8999 -42.3500 TS 35 12 300
1876247N14325 1876 15 NA NA NOT_NAMED 1876-09-04 06:00:00 TS 17.2000 -42.9000 main 1709 1691 _____________O -1 17.2000 -42.9000 TS 35 12 296
1876247N14325 1876 15 NA NA NOT_NAMED 1876-09-04 09:00:00 TS 17.4275 -43.4728 main 1687 1680 _____________P -1 17.4275 -43.4728 TS 37 12 295
1876247N14325 1876 15 NA NA NOT_NAMED 1876-09-04 12:00:00 TS 17.7000 -44.0000 main 1683 1677 _____________O -1 17.7000 -44.0000 TS 40 11 307
1876247N14325 1876 15 NA NA NOT_NAMED 1876-09-04 15:00:00 TS 18.1198 -44.4301 main 1697 1691 _____________P -1 18.1198 -44.4301 TS 40 12 320
1876247N14325 1876 15 NA NA NOT_NAMED 1876-09-04 18:00:00 TS 18.6000 -44.8000 main 1723 1723 _____________O -1 18.6000 -44.8000 TS 40 12 324
1876247N14325 1876 15 NA NA NOT_NAMED 1876-09-04 21:00:00 TS 19.0498 -45.1503 main 1741 1741 _____________P -1 19.0498 -45.1503 TS 40 11 324
1876247N14325 1876 15 NA NA NOT_NAMED 1876-09-05 00:00:00 TS 19.5000 -45.5000 main 1775 1775 _____________O -1 19.5000 -45.5000 TS 40 11 322
1876247N14325 1876 15 NA NA NOT_NAMED 1876-09-05 03:00:00 TS 19.9500 -45.9001 main 1807 1802 _____________P -1 19.9500 -45.9001 TS 40 12 320
1876247N14325 1876 15 NA NA NOT_NAMED 1876-09-05 06:00:00 TS 20.4000 -46.3000 main 1830 1830 _____________O -1 20.4000 -46.3000 TS 40 11 321
1876247N14325 1876 15 NA NA NOT_NAMED 1876-09-05 09:00:00 TS 20.8274 -46.6579 main 1854 1854 _____________P -1 20.8274 -46.6579 TS 42 11 324
1876247N14325 1876 15 NA NA NOT_NAMED 1876-09-05 12:00:00 TS 21.3000 -47.0000 main 1890 1890 _____________O -1 21.3000 -47.0000 TS 45 12 328
1876247N14325 1876 15 NA NA NOT_NAMED 1876-09-05 15:00:00 TS 21.8775 -47.3575 main 1915 1914 _____________P -1 21.8775 -47.3575 TS 45 14 332
1876247N14325 1876 15 NA NA NOT_NAMED 1876-09-05 18:00:00 TS 22.5000 -47.7000 main 1918 1899 _____________O -1 22.5000 -47.7000 TS 45 14 334
1876247N14325 1876 15 NA NA NOT_NAMED 1876-09-05 21:00:00 TS 23.0999 -48.0079 main 1902 1885 _____________P -1 23.0999 -48.0079 TS 45 13 335
1876247N14325 1876 15 NA NA NOT_NAMED 1876-09-06 00:00:00 TS 23.7000 -48.3000 main 1888 1874 _____________O -1 23.7000 -48.3000 TS 45 13 336
1876247N14325 1876 15 NA NA NOT_NAMED 1876-09-06 03:00:00 TS 24.3074 -48.6002 main 1877 1866 _____________P -1 24.3074 -48.6002 TS 45 13 335
1876247N14325 1876 15 NA NA NOT_NAMED 1876-09-06 06:00:00 TS 24.9000 -48.9000 main 1870 1857 _____________O -1 24.9000 -48.9000 TS 45 13 334
1876247N14325 1876 15 NA NA NOT_NAMED 1876-09-06 09:00:00 TS 25.4726 -49.2298 main 1865 1855 _____________P -1 25.4726 -49.2298 TS 45 12 334
1876247N14325 1876 15 NA NA NOT_NAMED 1876-09-06 12:00:00 TS 26.0000 -49.5000 main 1859 1855 _____________O -1 26.0000 -49.5000 TS 45 11 340
1876247N14325 1876 15 NA NA NOT_NAMED 1876-09-06 15:00:00 TS 26.4649 -49.6379 main 1874 1865 _____________P -1 26.4649 -49.6379 TS 45 9 349
1876247N14325 1876 15 NA NA NOT_NAMED 1876-09-06 18:00:00 TS 26.9000 -49.7000 main 1884 1884 _____________O -1 26.9000 -49.7000 TS 45 9 353
1876247N14325 1876 15 NA NA NOT_NAMED 1876-09-06 21:00:00 TS 27.3575 -49.7576 main 1902 1902 _____________P -1 27.3575 -49.7576 TS 45 9 355
1876247N14325 1876 15 NA NA NOT_NAMED 1876-09-07 00:00:00 TS 27.8000 -49.8000 main 1923 1923 _____________O -1 27.8000 -49.8000 TS 45 9 355
1876247N14325 1876 15 NA NA NOT_NAMED 1876-09-07 03:00:00 TS 28.2000 -49.8501 main 1937 1937 _____________P -1 28.2000 -49.8501 TS 45 8 354
1876247N14325 1876 15 NA NA NOT_NAMED 1876-09-07 06:00:00 TS 28.6000 -49.9000 main 1961 1961 _____________O -1 28.6000 -49.9000 TS 45 9 354
1876247N14325 1876 15 NA NA NOT_NAMED 1876-09-07 09:00:00 TS 29.0425 -49.9574 main 1977 1924 _____________P -1 29.0425 -49.9574 TS 45 9 355
1876247N14325 1876 15 NA NA NOT_NAMED 1876-09-07 12:00:00 TS 29.5000 -50.0000 main 1924 1879 _____________O -1 29.5000 -50.0000 TS 45 9 358
1876247N14325 1876 15 NA NA NOT_NAMED 1876-09-07 15:00:00 TS 29.9500 -50.0076 main 1868 1824 _____________P -1 29.9500 -50.0076 TS 47 9 0
1876247N14325 1876 15 NA NA NOT_NAMED 1876-09-07 18:00:00 TS 30.4000 -50.0000 main 1824 1780 _____________O -1 30.4000 -50.0000 TS 50 9 0
1876247N14325 1876 15 NA NA NOT_NAMED 1876-09-07 21:00:00 TS 30.8500 -50.0000 main 1769 1725 _____________P -1 30.8500 -50.0000 TS 50 9 0
1876247N14325 1876 15 NA NA NOT_NAMED 1876-09-08 00:00:00 TS 31.3000 -50.0000 main 1725 1680 _____________O -1 31.3000 -50.0000 TS 50 9 0
1876247N14325 1876 15 NA NA NOT_NAMED 1876-09-08 03:00:00 TS 31.7575 -50.0000 main 1669 1625 _____________P -1 31.7575 -50.0000 TS 50 9 0
1876247N14325 1876 15 NA NA NOT_NAMED 1876-09-08 06:00:00 TS 32.2000 -50.0000 main 1625 1581 _____________O -1 32.2000 -50.0000 TS 50 9 358
1876247N14325 1876 15 NA NA NOT_NAMED 1876-09-08 09:00:00 TS 32.6075 -50.0222 main 1581 1537 _____________P -1 32.6075 -50.0222 TS 50 8 1
1876247N14325 1876 15 NA NA NOT_NAMED 1876-09-08 12:00:00 TS 33.0000 -50.0000 main 1537 1495 _____________O -1 33.0000 -50.0000 TS 50 8 9
1876247N14325 1876 15 NA NA NOT_NAMED 1876-09-08 15:00:00 TS 33.4001 -49.8653 main 1495 1454 _____________P -1 33.4001 -49.8653 TS 50 8 17
1876247N14325 1876 15 NA NA NOT_NAMED 1876-09-08 18:00:00 TS 33.8000 -49.7000 main 1454 1412 _____________O -1 33.8000 -49.7000 TS 50 8 15
1876247N14325 1876 15 NA NA NOT_NAMED 1876-09-08 21:00:00 TS 34.1999 -49.5997 main 1412 1370 _____________P -1 34.1999 -49.5997 TS 50 8 12
1876247N14325 1876 15 NA NA NOT_NAMED 1876-09-09 00:00:00 TS 34.6000 -49.5000 main 1370 1329 _____________O -1 34.6000 -49.5000 TS 50 8 14
1876247N14325 1876 15 NA NA NOT_NAMED 1876-09-09 03:00:00 TS 35.0000 -49.3501 main 1329 1289 _____________P -1 35.0000 -49.3501 TS 50 8 17
1876247N14325 1876 15 NA NA NOT_NAMED 1876-09-09 06:00:00 TS 35.4000 -49.2000 main 1289 1257 _____________O -1 35.4000 -49.2000 TS 50 8 13
1876247N14325 1876 15 NA NA NOT_NAMED 1876-09-09 09:00:00 TS 35.7398 -49.1359 main 1259 1208 _____________P -1 35.7398 -49.1359 TS 50 8 12
1876247N14325 1876 15 NA NA NOT_NAMED 1876-09-09 12:00:00 TS 36.2000 -49.0000 main 1208 1140 _____________O -1 36.2000 -49.0000 TS 50 13 19
1876247N14325 1876 15 NA NA NOT_NAMED 1876-09-09 15:00:00 TS 36.9403 -48.6387 main 1143 1060 _____________P -1 36.9403 -48.6387 TS 50 17 22
1876247N14325 1876 15 NA NA NOT_NAMED 1876-09-09 18:00:00 TS 37.8000 -48.2000 main 1060 988 _____________O -1 37.8000 -48.2000 TS 50 18 21
1876247N14325 1876 15 NA NA NOT_NAMED 1876-09-09 21:00:00 TS 38.5998 -47.8487 main 992 923 _____________P -1 38.5998 -47.8487 TS 50 17 19
1876247N14325 1876 15 NA NA NOT_NAMED 1876-09-10 00:00:00 TS 39.4000 -47.5000 main 923 863 _____________O -1 39.4000 -47.5000 TS 50 17 20
1876247N14325 1876 15 NA NA NOT_NAMED 1876-09-10 03:00:00 TS 40.2075 -47.0997 main 863 810 _____________P -1 40.2075 -47.0997 TS 50 17 21
1876247N14325 1876 15 NA NA NOT_NAMED 1876-09-10 06:00:00 TS 41.0000 -46.7000 main 810 761 _____________O -1 41.0000 -46.7000 TS 50 16 17
1876247N14325 1876 15 NA NA NOT_NAMED 1876-09-10 09:00:00 TS 41.7780 -46.4507 main 752 727 _____________P -1 41.7780 -46.4507 TS 50 16 19
1876247N14325 1876 15 NA NA NOT_NAMED 1876-09-10 12:00:00 TS 42.5000 -46.0000 main 727 725 _____________O -1 42.5000 -46.0000 TS 50 17 38
1876247N14325 1876 15 NA NA NOT_NAMED 1876-09-10 15:00:00 TS 43.1316 -45.0060 main 749 749 _____________P -1 43.1316 -45.0060 TS 52 20 53
1876247N14325 1876 15 NA NA NOT_NAMED 1876-09-10 18:00:00 TS 43.7000 -43.8000 main 795 795 _____________O -1 43.7000 -43.8000 TS 55 20 56
1876247N14325 1876 15 NA NA NOT_NAMED 1876-09-10 21:00:00 TS 44.2563 -42.7400 main 840 840 _____________P -1 44.2563 -42.7400 TS 55 19 54
1876247N14325 1876 15 NA NA NOT_NAMED 1876-09-11 00:00:00 TS 44.8000 -41.7000 main 887 887 _____________O -1 44.8000 -41.7000 TS 55 18 54
1876247N14325 1876 15 NA NA NOT_NAMED 1876-09-11 03:00:00 TS 45.3490 -40.6480 main 947 943 _____________P -1 45.3490 -40.6480 TS 55 18 53
1876247N14325 1876 15 NA NA NOT_NAMED 1876-09-11 06:00:00 TS 45.9000 -39.6000 main 1001 1001 _____________O -1 45.9000 -39.6000 TS 55 18 53
1876247N14325 1876 15 NA NA NOT_NAMED 1876-09-11 09:00:00 TS 46.4519 -38.5543 main 1061 1061 _____________P -1 46.4519 -38.5543 TS 55 18 53
1876247N14325 1876 15 NA NA NOT_NAMED 1876-09-11 12:00:00 ET 47.0000 -37.5000 main 1134 _____________O -1 47.0000 -37.5000 EX 55 18 53

About IBTrACS Database

This database is a web-friendly format of International Best Track Archive for Climate Stewardship (IBTrACS), a global best track data archive curated by NOAA dating back to 1842.

Updated: 2021-10-25